Flight Track Log - Related Links

Times and Time Zones

All times are in EST time to prevent confusion due to time zone crossing. See the UPS2876 flight status page for this flight to view local times or setup timezone preferences in your user account.


Time Position Orientation Groundspeed Altitude Reporting Facility
EST Latitude Longitude Course Direction KTS MPH feet Rate Location/Type
Thu 04:36:41 PM 38.1910 -85.7510 165° South 159 183 1,500  Level FlightAware ADS-B
Thu 04:37:17 PM 38.2190 -85.7670 336° Northwest 202 232 2,800 2,156 Climbing FlightAware ADS-B
Thu 04:37:45 PM 38.2440 -85.7860 329° Northwest 232 267 3,800 2,250 Climbing FlightAware ADS-B
Thu 04:38:13 PM 38.2700 -85.8080 326° Northwest 253 291 4,900 2,760 Climbing FlightAware ADS-B
Thu 04:38:35 PM 38.2780 -85.8390 288° West 252 290 6,100 3,194 Climbing FlightAware ADS-B
Thu 04:39:15 PM 38.2670 -85.8960 256° West 265 305 8,200 3,167 Climbing FlightAware ADS-B
Thu 04:39:47 PM 38.2350 -85.9260 216° Southwest 275 316 9,900 2,289 Climbing FlightAware ADS-B
Thu 04:40:31 PM 38.1870 -85.9710 216° Southwest 317 365 11,100 2,491 Climbing FlightAware ADS-B
Thu 04:41:33 PM 38.1100 -86.0420 216° Southwest 341 392 14,300 3,191 Climbing FlightAware ADS-B
Thu 04:42:05 PM 38.0690 -86.0800 216° Southwest 348 400 16,100 3,130 Climbing FlightAware ADS-B
Thu 04:43:05 PM 37.9900 -86.1550 217° Southwest 364 419 19,100 3,064 Climbing FlightAware ADS-B
Thu 04:43:39 PM 37.9470 -86.2070 224° Southwest 351 404 20,900 3,103 Climbing FlightAware ADS-B
Thu 04:44:03 PM 37.9290 -86.2470 240° Southwest 340 391 22,100 2,500 Climbing FlightAware ADS-B
Thu 04:44:27 PM 37.9190 -86.2940 255° West 338 389 22,900 2,381 Climbing FlightAware ADS-B
Thu 04:45:06 PM 37.9160 -86.3710 267° West 342 394 24,600 2,308 Climbing FlightAware ADS-B
Thu 04:45:45 PM 37.9130 -86.4500 267° West 353 406 25,900 1,235 Climbing FlightAware ADS-B
Thu 04:46:14 PM 37.9100 -86.5110 266° West 354 407 26,000 74 Climbing FlightAware ADS-B
Thu 04:47:06 PM 37.9050 -86.6180 267° West 351 404 26,000  Level FlightAware ADS-B
Thu 04:47:42 PM 37.9140 -86.6910 279° West 352 405 26,000 476 Level FlightAware ADS-B
Thu 04:48:09 PM 37.9210 -86.7430 280° West 353 406 26,500 1,727 Climbing FlightAware ADS-B
Thu 04:48:48 PM 37.9320 -86.8270 279° West 362 417 27,900 2,000 Climbing FlightAware ADS-B
Thu 04:49:24 PM 37.9390 -86.8940 278° West 366 421 29,000 2,364 Climbing FlightAware ADS-B
Thu 04:49:54 PM 37.9400 -86.9620 271° West 358 412 30,500 2,471 Climbing FlightAware ADS-B
Thu 04:50:32 PM 37.9360 -87.0440 266° West 354 407 31,800 978 Climbing FlightAware ADS-B
Thu 04:51:26 PM 37.9310 -87.1560 267° West 352 405 32,000 112 Climbing FlightAware ADS-B
Thu 04:52:19 PM 37.9230 -87.2640 265° West 351 404 32,000  Level FlightAware ADS-B
Thu 04:53:19 PM 37.9140 -87.3870 265° West 354 407 32,000  Level FlightAware ADS-B
Thu 04:53:50 PM 37.9090 -87.4520 264° West 355 409 32,000 987 Level FlightAware ADS-B
Thu 04:54:38 PM 37.9030 -87.5490 266° West 349 402 33,300 1,319 Climbing FlightAware ADS-B
Thu 04:55:21 PM 37.8970 -87.6350 265° West 338 389 34,000 512 Climbing FlightAware ADS-B
Thu 04:56:00 PM 37.8910 -87.7130 264° West 341 392 34,000  Level FlightAware ADS-B
Thu 04:56:32 PM 37.8870 -87.7770 265° West 346 398 34,000  Level FlightAware ADS-B
Thu 04:57:04 PM 37.8820 -87.8410 264° West 348 400 34,000  Level FlightAware ADS-B
Thu 04:57:59 PM 37.8740 -87.9520 265° West 349 402 34,000  Level FlightAware ADS-B
Thu 04:58:56 PM 37.8650 -88.0680 264° West 349 402 34,000  Level FlightAware ADS-B
Thu 04:59:49 PM 37.8570 -88.1750 265° West 350 403 34,000  Level FlightAware ADS-B
Thu 05:00:44 PM 37.8490 -88.2890 265° West 351 404 34,000  Level FlightAware ADS-B
Thu 05:01:48 PM 37.8390 -88.4200 265° West 352 405 34,000  Level FlightAware ADS-B
Thu 05:02:18 PM 37.8340 -88.4800 264° West 352 405 34,000  Level FlightAware ADS-B
Thu 05:03:16 PM 37.8250 -88.6000 265° West 354 407 34,000  Level FlightAware ADS-B
Thu 05:03:48 PM 37.8200 -88.6660 265° West 354 407 34,000  Level FlightAware ADS-B
Thu 05:04:44 PM 37.8110 -88.7810 264° West 356 410 34,000  Level FlightAware ADS-B
Thu 05:05:11 PM 37.8060 -88.8360 263° West 357 411 34,000  Level FlightAware ADS-B
Thu 05:06:12 PM 37.7960 -88.9640 264° West 358 412 34,000  Level FlightAware ADS-B
Thu 05:06:36 PM 37.7920 -89.0130 264° West 358 412 34,000  Level FlightAware ADS-B
Thu 05:07:22 PM 37.7840 -89.1100 264° West 359 413 34,000  Level FlightAware ADS-B
Thu 05:08:02 PM 37.7770 -89.1930 264° West 360 414 34,000  Level FlightAware ADS-B
Thu 05:08:51 PM 37.7680 -89.2930 264° West 362 417 34,000  Level FlightAware ADS-B
Thu 05:09:33 PM 37.7610 -89.3790 264° West 362 417 34,000  Level FlightAware ADS-B
Thu 05:10:01 PM 37.7560 -89.4390 264° West 362 417 34,000  Level FlightAware ADS-B
Thu 05:10:52 PM 37.7470 -89.5490 264° West 363 418 34,000  Level FlightAware ADS-B
Thu 05:11:31 PM 37.7390 -89.6320 263° West 363 418 34,000  Level FlightAware ADS-B
Thu 05:12:21 PM 37.7300 -89.7370 264° West 361 415 34,000  Level FlightAware ADS-B
Thu 05:13:15 PM 37.7200 -89.8490 264° West 359 413 34,000  Level FlightAware ADS-B
Thu 05:14:07 PM 37.7100 -89.9570 263° West 357 411 34,000  Level FlightAware ADS-B
Thu 05:14:55 PM 37.7010 -90.0570 264° West 357 411 34,000  Level FlightAware ADS-B
Thu 05:15:19 PM 37.6970 -90.1060 264° West 357 411 34,000  Level FlightAware ADS-B
Thu 05:15:51 PM 37.6910 -90.1730 264° West 357 411 34,000  Level FlightAware ADS-B
Thu 05:16:47 PM 37.6800 -90.2880 263° West 358 412 34,000  Level FlightAware ADS-B
Thu 05:17:31 PM 37.6720 -90.3780 264° West 358 412 34,000  Level FlightAware ADS-B
Thu 05:18:27 PM 37.6610 -90.4950 263° West 359 413 34,000  Level FlightAware ADS-B
Thu 05:19:08 PM 37.6530 -90.5810 263° West 359 413 34,000  Level FlightAware ADS-B
Thu 05:20:09 PM 37.6400 -90.7080 263° West 361 415 34,000  Level FlightAware ADS-B
Thu 05:20:59 PM 37.6300 -90.8120 263° West 362 417 34,000  Level FlightAware ADS-B
Thu 05:21:19 PM 37.6270 -90.8500 264° West 362 417 34,000  Level FlightAware ADS-B
Thu 05:22:27 PM 37.6120 -90.9970 263° West 362 417 34,000  Level FlightAware ADS-B
Thu 05:23:18 PM 37.6010 -91.1030 263° West 363 418 34,000  Level FlightAware ADS-B
Thu 05:23:39 PM 37.5970 -91.1470 263° West 363 418 34,000  Level FlightAware ADS-B
Thu 05:24:34 PM 37.5850 -91.2620 263° West 363 418 34,000  Level FlightAware ADS-B
Thu 05:25:32 PM 37.5730 -91.3860 263° West 363 418 34,000  Level FlightAware ADS-B
Thu 05:26:11 PM 37.5650 -91.4650 263° West 364 419 34,000  Level FlightAware ADS-B
Thu 05:26:41 PM 37.5580 -91.5270 262° West 364 419 34,000  Level FlightAware ADS-B
Thu 05:27:34 PM 37.5460 -91.6410 262° West 364 419 34,000  Level FlightAware ADS-B
Thu 05:28:22 PM 37.5360 -91.7420 263° West 365 420 34,000  Level FlightAware ADS-B
Thu 05:29:10 PM 37.5250 -91.8430 262° West 365 420 34,000  Level FlightAware ADS-B
Thu 05:30:10 PM 37.5110 -91.9700 262° West 365 420 34,000  Level FlightAware ADS-B
Thu 05:31:04 PM 37.4990 -92.0820 262° West 365 420 34,000  Level FlightAware ADS-B
Thu 05:31:59 PM 37.4860 -92.1980 262° West 367 422 34,000  Level FlightAware ADS-B
Thu 05:32:42 PM 37.4760 -92.2890 262° West 367 422 34,000  Level FlightAware ADS-B
Thu 05:33:08 PM 37.4700 -92.3430 262° West 367 422 34,000  Level FlightAware ADS-B
Thu 05:34:07 PM 37.4560 -92.4690 262° West 368 423 34,000  Level FlightAware ADS-B
Thu 05:34:59 PM 37.4440 -92.5760 262° West 368 423 34,000  Level FlightAware ADS-B
Thu 05:35:23 PM 37.4380 -92.6290 262° West 368 423 34,000  Level FlightAware ADS-B
Thu 05:36:23 PM 37.4240 -92.7550 262° West 368 423 34,000  Level FlightAware ADS-B
Thu 05:37:13 PM 37.4110 -92.8640 261° West 368 423 34,000  Level FlightAware ADS-B
Thu 05:37:54 PM 37.4010 -92.9490 262° West 369 425 34,000  Level FlightAware ADS-B
Thu 05:38:14 PM 37.3970 -92.9910 263° West 369 425 34,000  Level FlightAware ADS-B
Thu 05:39:09 PM 37.3830 -93.1100 262° West 368 423 34,000  Level FlightAware ADS-B
Thu 05:39:43 PM 37.3740 -93.1810 261° West 369 425 34,000  Level FlightAware ADS-B
Thu 05:40:13 PM 37.3670 -93.2440 262° West 369 425 34,000  Level FlightAware ADS-B
Thu 05:41:12 PM 37.3510 -93.3670 261° West 368 423 34,000  Level FlightAware ADS-B
Thu 05:41:34 PM 37.3450 -93.4130 261° West 369 425 34,000  Level FlightAware ADS-B
Thu 05:42:33 PM 37.3270 -93.5390 260° West 368 423 34,000  Level FlightAware ADS-B
Thu 05:42:58 PM 37.3190 -93.5930 259° West 368 423 34,000  Level FlightAware ADS-B
Thu 05:43:44 PM 37.3050 -93.6890 260° West 369 425 34,000  Level FlightAware ADS-B
Thu 05:44:34 PM 37.2900 -93.7920 260° West 367 422 34,000  Level FlightAware ADS-B
Thu 05:45:30 PM 37.2730 -93.9110 260° West 367 422 34,000  Level FlightAware ADS-B
Thu 05:46:23 PM 37.2560 -94.0210 259° West 366 421 34,000  Level FlightAware ADS-B
Thu 05:47:08 PM 37.2420 -94.1150 259° West 367 422 34,000  Level FlightAware ADS-B
Thu 05:47:47 PM 37.2300 -94.1960 259° West 367 422 34,000  Level FlightAware ADS-B
Thu 05:48:34 PM 37.2150 -94.2950 259° West 368 423 34,000  Level FlightAware ADS-B
Thu 05:49:28 PM 37.1980 -94.4090 259° West 369 425 34,000  Level FlightAware ADS-B
Thu 05:50:14 PM 37.1840 -94.5050 260° West 369 425 34,000  Level FlightAware ADS-B
Thu 05:51:02 PM 37.1680 -94.6060 259° West 369 425 34,000  Level FlightAware ADS-B
Thu 05:51:41 PM 37.1560 -94.6870 259° West 370 426 34,000  Level FlightAware ADS-B
Thu 05:52:35 PM 37.1380 -94.8010 259° West 371 427 34,000  Level FlightAware ADS-B
Thu 05:52:55 PM 37.1310 -94.8430 258° West 371 427 34,000  Level FlightAware ADS-B
Thu 05:53:22 PM 37.1230 -94.9000 260° West 371 427 34,000  Level FlightAware ADS-B
Thu 05:54:15 PM 37.1050 -95.0120 259° West 371 427 34,000  Level FlightAware ADS-B
Thu 05:55:00 PM 37.0900 -95.1060 259° West 372 428 34,000  Level FlightAware ADS-B
Thu 05:55:45 PM 37.0750 -95.2010 259° West 370 426 34,000  Level FlightAware ADS-B
Thu 05:56:33 PM 37.0590 -95.3010 259° West 371 427 34,000  Level FlightAware ADS-B
Thu 05:57:27 PM 37.0410 -95.4170 259° West 371 427 34,000  Level FlightAware ADS-B
Thu 05:58:19 PM 37.0230 -95.5270 258° West 371 427 34,000  Level FlightAware ADS-B
Thu 05:58:45 PM 37.0140 -95.5810 258° West 371 427 34,000  Level FlightAware ADS-B
Thu 05:59:46 PM 36.9940 -95.7060 259° West 371 427 34,000  Level FlightAware ADS-B
Thu 06:00:42 PM 36.9750 -95.8230 259° West 371 427 34,000  Level FlightAware ADS-B
Thu 06:01:06 PM 36.9670 -95.8710 258° West 371 427 34,000  Level FlightAware ADS-B
Thu 06:02:03 PM 36.9460 -95.9970 258° West 372 428 34,000  Level FlightAware ADS-B
Thu 06:02:44 PM 36.9320 -96.0810 258° West 372 428 34,000  Level FlightAware ADS-B
Thu 06:03:03 PM 36.9250 -96.1220 258° West 372 428 34,000  Level FlightAware ADS-B
Thu 06:04:05 PM 36.9030 -96.2530 258° West 372 428 34,000  Level FlightAware ADS-B
Thu 06:04:59 PM 36.8840 -96.3670 258° West 373 429 34,000  Level FlightAware ADS-B
Thu 06:05:43 PM 36.8680 -96.4580 258° West 372 428 34,000  Level FlightAware ADS-B
Thu 06:06:17 PM 36.8560 -96.5300 258° West 372 428 34,000  Level FlightAware ADS-B
Thu 06:07:06 PM 36.8380 -96.6330 258° West 372 428 34,000  Level FlightAware ADS-B
Thu 06:07:54 PM 36.8210 -96.7320 258° West 372 428 34,000  Level FlightAware ADS-B
Thu 06:08:38 PM 36.8050 -96.8240 258° West 371 427 34,000  Level FlightAware ADS-B
Thu 06:09:22 PM 36.7900 -96.9130 258° West 371 427 34,000  Level FlightAware ADS-B
Thu 06:10:04 PM 36.7740 -97.0020 257° West 371 427 34,000  Level FlightAware ADS-B
Thu 06:11:01 PM 36.7530 -97.1240 258° West 371 427 34,000  Level FlightAware ADS-B
Thu 06:11:51 PM 36.7370 -97.2290 259° West 371 427 34,000  Level FlightAware ADS-B
Thu 06:12:40 PM 36.7240 -97.3300 261° West 370 426 34,000  Level FlightAware ADS-B
Thu 06:13:18 PM 36.7130 -97.4100 260° West 370 426 34,000  Level FlightAware ADS-B
Thu 06:14:07 PM 36.6980 -97.5150 260° West 370 426 34,000  Level FlightAware ADS-B
Thu 06:14:57 PM 36.6830 -97.6190 260° West 371 427 34,000  Level FlightAware ADS-B
Thu 06:16:02 PM 36.6640 -97.7560 260° West 371 427 34,000  Level FlightAware ADS-B
Thu 06:16:55 PM 36.6480 -97.8670 260° West 371 427 34,000  Level FlightAware ADS-B
Thu 06:17:55 PM 36.6300 -97.9930 260° West 372 428 34,000  Level FlightAware ADS-B
Thu 06:18:45 PM 36.6150 -98.0990 260° West 373 429 34,000  Level FlightAware ADS-B
Thu 06:19:33 PM 36.6000 -98.2000 260° West 373 429 34,000  Level FlightAware ADS-B
Thu 06:20:09 PM 36.5890 -98.2770 260° West 374 430 34,000  Level FlightAware ADS-B
Thu 06:20:38 PM 36.5800 -98.3370 259° West 374 430 34,000  Level FlightAware ADS-B
Thu 06:21:10 PM 36.5700 -98.4050 260° West 374 430 34,000  Level FlightAware ADS-B
Thu 06:22:02 PM 36.5540 -98.5160 260° West 375 432 34,000  Level FlightAware ADS-B
Thu 06:22:26 PM 36.5470 -98.5650 260° West 376 433 34,000  Level FlightAware ADS-B
Thu 06:23:14 PM 36.5310 -98.6680 259° West 375 432 34,000  Level FlightAware ADS-B
Thu 06:24:02 PM 36.5160 -98.7690 260° West 374 430 34,000  Level FlightAware ADS-B
Thu 06:24:59 PM 36.4980 -98.8900 260° West 375 432 34,000  Level FlightAware ADS-B
Thu 06:25:29 PM 36.4890 -98.9530 260° West 375 432 34,000  Level FlightAware ADS-B
Thu 06:26:27 PM 36.4700 -99.0760 259° West 375 432 34,000  Level FlightAware ADS-B
Thu 06:27:02 PM 36.4590 -99.1470 259° West 376 433 34,000  Level FlightAware ADS-B
Thu 06:27:58 PM 36.4410 -99.2650 259° West 377 434 34,000  Level FlightAware ADS-B
Thu 06:28:30 PM 36.4300 -99.3360 259° West 377 434 34,000  Level FlightAware ADS-B
Thu 06:29:36 PM 36.4080 -99.4760 259° West 379 436 34,000  Level FlightAware ADS-B
Thu 06:30:27 PM 36.3910 -99.5820 259° West 380 437 34,000  Level FlightAware ADS-B
Thu 06:31:01 PM 36.3790 -99.6600 259° West 381 438 34,000  Level FlightAware ADS-B
Thu 06:31:32 PM 36.3680 -99.7260 258° West 381 438 34,000  Level FlightAware ADS-B
Thu 06:32:04 PM 36.3570 -99.7950 259° West 380 437 34,000  Level FlightAware ADS-B
Thu 06:32:33 PM 36.3480 -99.8560 260° West 380 437 34,000  Level FlightAware ADS-B
Thu 06:33:33 PM 36.3320 -99.9850 261° West 380 437 34,000  Level FlightAware ADS-B
Thu 06:34:17 PM 36.3220 -100.0790 263° West 380 437 34,000  Level FlightAware ADS-B
Thu 06:35:07 PM 36.3100 -100.1860 262° West 381 438 34,000  Level FlightAware ADS-B
Thu 06:36:03 PM 36.2970 -100.3070 262° West 381 438 34,000  Level FlightAware ADS-B
Thu 06:36:46 PM 36.2870 -100.4000 262° West 381 438 34,000  Level FlightAware ADS-B
Thu 06:37:38 PM 36.2740 -100.5130 262° West 382 440 34,000  Level FlightAware ADS-B
Thu 06:38:27 PM 36.2620 -100.6190 262° West 382 440 34,000  Level FlightAware ADS-B
Thu 06:39:06 PM 36.2520 -100.7050 262° West 384 442 34,000  Level FlightAware ADS-B
Thu 06:39:55 PM 36.2400 -100.8090 262° West 385 443 34,000  Level FlightAware ADS-B
Thu 06:40:31 PM 36.2310 -100.8890 262° West 386 444 34,000  Level FlightAware ADS-B
Thu 06:41:00 PM 36.2230 -100.9520 261° West 387 445 34,000  Level FlightAware ADS-B
Thu 06:42:02 PM 36.2070 -101.0900 262° West 391 450 34,000  Level FlightAware ADS-B
Thu 06:42:26 PM 36.2010 -101.1430 262° West 391 450 34,000  Level FlightAware ADS-B
Thu 06:43:29 PM 36.1840 -101.2820 261° West 393 452 34,000  Level FlightAware ADS-B
Thu 06:44:21 PM 36.1700 -101.3970 261° West 394 453 34,000  Level FlightAware ADS-B
Thu 06:45:15 PM 36.1560 -101.5180 262° West 395 455 34,000  Level FlightAware ADS-B
Thu 06:46:09 PM 36.1410 -101.6400 261° West 395 455 34,000  Level FlightAware ADS-B
Thu 06:47:05 PM 36.1260 -101.7650 262° West 395 455 34,000  Level FlightAware ADS-B
Thu 06:48:04 PM 36.1090 -101.8960 261° West 395 455 34,000  Level FlightAware ADS-B
Thu 06:48:49 PM 36.0960 -101.9970 261° West 395 455 34,000  Level FlightAware ADS-B
Thu 06:49:40 PM 36.0820 -102.1090 261° West 395 455 34,000  Level FlightAware ADS-B
Thu 06:50:36 PM 36.0660 -102.2340 261° West 396 456 34,000  Level FlightAware ADS-B
Thu 06:51:24 PM 36.0530 -102.3410 261° West 396 456 34,000  Level FlightAware ADS-B
Thu 06:52:00 PM 36.0420 -102.4230 261° West 395 455 34,000  Level FlightAware ADS-B
Thu 06:52:48 PM 36.0280 -102.5300 261° West 397 457 34,000  Level FlightAware ADS-B
Thu 06:53:12 PM 36.0210 -102.5830 261° West 397 457 34,000  Level FlightAware ADS-B
Thu 06:54:13 PM 36.0030 -102.7180 261° West 396 456 34,000  Level FlightAware ADS-B
Thu 06:54:41 PM 35.9950 -102.7800 261° West 396 456 34,000  Level FlightAware ADS-B
Thu 06:55:37 PM 35.9780 -102.9050 260° West 397 457 34,000  Level FlightAware ADS-B
Thu 06:56:42 PM 35.9590 -103.0500 261° West 398 458 34,000  Level FlightAware ADS-B
Thu 06:57:34 PM 35.9430 -103.1640 260° West 399 459 34,000  Level FlightAware ADS-B
Thu 06:58:30 PM 35.9260 -103.2940 261° West 400 460 34,000  Level FlightAware ADS-B
Thu 06:59:18 PM 35.9110 -103.4020 260° West 400 460 34,000  Level FlightAware ADS-B
Thu 07:00:06 PM 35.8960 -103.5090 260° West 400 460 34,000  Level FlightAware ADS-B
Thu 07:00:55 PM 35.8800 -103.6210 260° West 400 460 34,000  Level FlightAware ADS-B
Thu 07:01:42 PM 35.8660 -103.7220 260° West 401 461 34,000  Level FlightAware ADS-B
Thu 07:02:30 PM 35.8500 -103.8340 260° West 401 461 34,000  Level FlightAware ADS-B
Thu 07:02:55 PM 35.8420 -103.8880 260° West 401 461 34,000  Level FlightAware ADS-B
Thu 07:03:55 PM 35.8230 -104.0240 260° West 402 463 34,000  Level FlightAware ADS-B
Thu 07:04:47 PM 35.8060 -104.1420 260° West 403 464 34,000  Level FlightAware ADS-B
Thu 07:05:44 PM 35.7870 -104.2700 260° West 404 465 34,000  Level FlightAware ADS-B
Thu 07:06:16 PM 35.7770 -104.3420 260° West 404 465 34,000  Level FlightAware ADS-B
Thu 07:07:21 PM 35.7550 -104.4880 260° West 404 465 34,000  Level FlightAware ADS-B
Thu 07:08:02 PM 35.7420 -104.5800 260° West 404 465 34,000  Level FlightAware ADS-B
Thu 07:08:31 PM 35.7310 -104.6480 259° West 404 465 34,000  Level FlightAware ADS-B
Thu 07:09:30 PM 35.7120 -104.7790 260° West 405 466 34,000  Level FlightAware ADS-B
Thu 07:10:02 PM 35.7000 -104.8550 259° West 407 468 34,000  Level FlightAware ADS-B
Thu 07:10:55 PM 35.6820 -104.9730 259° West 407 468 34,000  Level FlightAware ADS-B
Thu 07:11:58 PM 35.6630 -105.0960 259° West 407 468 34,000  Level FlightAware ADS-B
Thu 07:12:49 PM 35.6420 -105.2340 259° West 408 470 34,000  Level FlightAware ADS-B
Thu 07:13:33 PM 35.6270 -105.3330 259° West 409 471 34,000  Level FlightAware ADS-B
Thu 07:14:01 PM 35.6170 -105.3970 259° West 409 471 34,000  Level FlightAware ADS-B
Thu 07:14:33 PM 35.6050 -105.4710 259° West 410 472 34,000  Level FlightAware ADS-B
Thu 07:15:24 PM 35.5870 -105.5860 259° West 409 471 34,000  Level FlightAware ADS-B
Thu 07:16:12 PM 35.5700 -105.6960 259° West 409 471 34,000  Level FlightAware ADS-B
Thu 07:17:14 PM 35.5470 -105.8380 259° West 410 472 34,000  Level FlightAware ADS-B
Thu 07:18:06 PM 35.5290 -105.9520 259° West 408 470 34,000  Level FlightAware ADS-B
Thu 07:19:02 PM 35.5070 -106.0830 258° West 407 468 34,000  Level FlightAware ADS-B
Thu 07:19:50 PM 35.4900 -106.1910 259° West 406 467 34,000  Level FlightAware ADS-B
Thu 07:20:14 PM 35.4810 -106.2450 258° West 406 467 34,000  Level FlightAware ADS-B
Thu 07:20:58 PM 35.4650 -106.3440 259° West 405 466 34,000  Level FlightAware ADS-B
Thu 07:22:00 PM 35.4420 -106.4830 259° West 404 465 34,000  Level FlightAware ADS-B
Thu 07:22:42 PM 35.4260 -106.5790 258° West 404 465 34,000  Level FlightAware ADS-B
Thu 07:23:30 PM 35.4080 -106.6850 258° West 403 464 34,000  Level FlightAware ADS-B
Thu 07:24:22 PM 35.3880 -106.8020 258° West 404 465 34,000  Level FlightAware ADS-B
Thu 07:25:09 PM 35.3710 -106.9060 259° West 404 465 34,000  Level FlightAware ADS-B
Thu 07:25:58 PM 35.3520 -107.0150 258° West 405 466 34,000  Level FlightAware ADS-B
Thu 07:26:27 PM 35.3410 -107.0800 258° West 406 467 34,000  Level FlightAware ADS-B
Thu 07:27:05 PM 35.3260 -107.1680 258° West 407 468 34,000  Level FlightAware ADS-B
Thu 07:28:01 PM 35.3040 -107.2940 258° West 409 471 34,000  Level FlightAware ADS-B
Thu 07:28:46 PM 35.2890 -107.3820 258° West 409 471 34,000  Level FlightAware ADS-B
Thu 07:29:46 PM 35.2690 -107.4980 258° West 409 471 34,000  Level FlightAware ADS-B
Thu 07:30:20 PM 35.2570 -107.5630 257° West 409 471 34,000  Level FlightAware ADS-B
Thu 07:31:09 PM 35.2410 -107.6580 258° West 409 471 34,000  Level FlightAware ADS-B
Thu 07:31:46 PM 35.2280 -107.7290 257° West 409 471 34,000  Level FlightAware ADS-B
Thu 07:32:20 PM 35.2170 -107.7950 258° West 409 471 34,000  Level FlightAware ADS-B
Thu 07:33:10 PM 35.2000 -107.8910 258° West 409 471 34,000  Level FlightAware ADS-B
Thu 07:34:10 PM 35.1800 -108.0060 258° West 409 471 34,000  Level FlightAware ADS-B
Thu 07:35:10 PM 35.1600 -108.1220 258° West 409 471 34,000  Level FlightAware ADS-B
Thu 07:35:22 PM 35.1560 -108.1450 258° West 409 471 34,000  Level FlightAware ADS-B
Thu 07:36:22 PM 35.1360 -108.2600 258° West 409 471 34,000  Level FlightAware ADS-B
Thu 07:37:10 PM 35.1200 -108.3530 258° West 409 471 34,000  Level FlightAware ADS-B
Thu 07:37:22 PM 35.1160 -108.3760 258° West 409 471 34,000  Level FlightAware ADS-B
Thu 07:40:30 PM 35.0040 -108.9500 257° West 403 464 34,000  Level FlightAware ADS-B
Thu 07:41:30 PM 34.9800 -109.0820 258° West 404 465 34,000  Level FlightAware ADS-B
Thu 07:42:08 PM 34.9610 -109.1640 254° West 404 465 34,000  Level FlightAware ADS-B
Thu 07:42:48 PM 34.9320 -109.2490 247° West 404 465 34,000  Level FlightAware ADS-B
Thu 07:43:48 PM 34.8860 -109.3750 246° West 404 465 34,000  Level FlightAware ADS-B
Thu 07:44:42 PM 34.8450 -109.4860 246° West 404 465 34,000  Level FlightAware ADS-B
Thu 07:45:46 PM 34.7970 -109.6170 246° West 403 464 34,000  Level FlightAware ADS-B
Thu 07:46:11 PM 34.7770 -109.6690 245° Southwest 404 465 34,000  Level FlightAware ADS-B
Thu 07:46:42 PM 34.7530 -109.7340 246° West 404 465 34,000  Level FlightAware ADS-B
Thu 07:47:38 PM 34.7110 -109.8480 246° West 404 465 34,000  Level FlightAware ADS-B
Thu 07:48:02 PM 34.6920 -109.9000 246° West 405 466 34,000  Level FlightAware ADS-B
Thu 07:48:55 PM 34.6520 -110.0070 246° West 405 466 34,000  Level FlightAware ADS-B
Thu 07:49:42 PM 34.6150 -110.1060 246° West 405 466 34,000  Level FlightAware ADS-B
Thu 07:50:35 PM 34.5750 -110.2130 246° West 405 466 34,000  Level FlightAware ADS-B
Thu 07:51:32 PM 34.5290 -110.3340 245° Southwest 406 467 34,000 -629 Level FlightAware ADS-B
Thu 07:52:20 PM 34.4920 -110.4330 246° West 404 465 32,900 -1,592 Descending FlightAware ADS-B
Thu 07:53:10 PM 34.4530 -110.5350 245° Southwest 393 452 31,400 -1,769 Descending FlightAware ADS-B
Thu 07:53:38 PM 34.4330 -110.5900 246° West 388 447 30,600 -1,725 Descending FlightAware ADS-B
Thu 07:54:30 PM 34.3940 -110.6920 245° Southwest 377 434 29,100 -1,674 Descending FlightAware ADS-B
Thu 07:55:04 PM 34.3690 -110.7570 245° Southwest 384 442 28,200 -1,800 Descending FlightAware ADS-B
Thu 07:55:40 PM 34.3330 -110.8220 236° Southwest 396 456 27,000 -1,953 Descending FlightAware ADS-B
Thu 07:56:30 PM 34.2720 -110.9030 228° Southwest 392 451 25,400 -1,979 Descending FlightAware ADS-B
Thu 07:57:17 PM 34.2140 -110.9770 227° Southwest 378 435 23,800 -1,964 Descending FlightAware ADS-B
Thu 07:58:20 PM 34.1410 -111.0710 227° Southwest 360 414 21,800 -1,907 Descending FlightAware ADS-B
Thu 07:59:04 PM 34.0910 -111.1350 227° Southwest 358 412 20,400 -1,846 Descending FlightAware ADS-B
Thu 07:59:51 PM 34.0380 -111.2020 226° Southwest 353 406 19,000 -1,824 Descending FlightAware ADS-B
Thu 08:00:46 PM 33.9770 -111.2810 227° Southwest 343 395 17,300 -1,833 Descending FlightAware ADS-B
Thu 08:01:39 PM 33.9210 -111.3530 227° Southwest 338 389 15,700 -1,371 Descending FlightAware ADS-B
Thu 08:02:31 PM 33.8710 -111.4230 229° Southwest 306 352 14,900 -1,120 Descending FlightAware ADS-B
Thu 08:02:54 PM 33.8520 -111.4570 236° Southwest 307 353 14,300 -1,607 Descending FlightAware ADS-B
Thu 08:03:27 PM 33.8270 -111.5050 238° Southwest 306 352 13,400 -2,700 Descending FlightAware ADS-B
Thu 08:03:34 PM 33.8004 -111.5565 238° Southwest 300 345 12,500 -1,400 Descending FlightAware ADS-B
Thu 08:04:27 PM 33.7840 -111.5880 238° Southwest 298 343 12,000 -981 Descending FlightAware ADS-B
Thu 08:05:18 PM 33.7470 -111.6590 238° Southwest 292 336 10,800 -1,575 Descending FlightAware ADS-B
Thu 08:05:47 PM 33.7038 -111.7395 237° Southwest 284 327 9,900 -771 Descending FlightAware ADS-B
Thu 08:06:28 PM 33.6950 -111.7550 236° Southwest 284 327 9,900  Level FlightAware ADS-B
Thu 08:06:40 PM 33.6666 -111.8076 237° Southwest 287 330 9,900  Level FlightAware ADS-B
Thu 08:07:00 PM 33.6568 -111.8257 237° Southwest 289 333 9,900  Level FlightAware ADS-B
Thu 08:07:19 PM 33.6372 -111.8618 237° Southwest 287 330 9,900  Level FlightAware ADS-B
Thu 08:07:51 PM 33.6143 -111.9039 237° Southwest 285 328 9,900  Level FlightAware ADS-B
Thu 08:08:01 PM 33.6058 -111.9159 230° Southwest 282 325 9,900  Level FlightAware ADS-B
Thu 08:08:12 PM 33.5941 -111.9242 211° Southwest 279 321 9,900  Level FlightAware ADS-B
Thu 08:08:42 PM 33.5577 -111.9343 193° South 281 323 9,900  Level FlightAware ADS-B
Thu 08:09:20 PM 33.5440 -111.9380 193° South 279 321 9,900 -517 Level FlightAware ADS-B
Thu 08:09:40 PM 33.4821 -111.9551 193° South 277 319 9,400 -621 Descending FlightAware ADS-B
Thu 08:10:18 PM 33.4710 -111.9580 192° South 277 319 9,300 -689 Descending FlightAware ADS-B
Thu 08:10:41 PM 33.4410 -111.9650 191° South 278 320 8,700 -3,000 Descending FlightAware ADS-B
Thu 08:10:48 PM 33.4034 -111.9954 214° Southwest 280 322 7,800 -3,462 Descending FlightAware ADS-B
Thu 08:11:07 PM 33.3912 -112.0091 223° Southwest 276 318 7,200 -1,350 Descending FlightAware ADS-B
Thu 08:11:28 PM 33.3671 -112.0376 225° Southwest 268 308 6,900 -600 Descending FlightAware ADS-B
Thu 08:11:37 PM 33.3609 -112.0491 237° Southwest 257 296 6,900 -600 Level FlightAware ADS-B
Thu 08:11:48 PM 33.3583 -112.0587 252° West 254 292 6,700 -279 Descending FlightAware ADS-B
Thu 08:12:20 PM 33.3580 -112.0670 267° West 252 290 6,700 -1,083 Level FlightAware ADS-B
Thu 08:13:00 PM 33.3620 -112.1230 275° West 250 288 5,400 -1,606 Descending FlightAware ADS-B
Thu 08:13:31 PM 33.3640 -112.1640 273° West 221 254 4,800 -1,300 Descending FlightAware ADS-B
Thu 08:14:00 PM 33.3800 -112.1860 311° West 185 213 4,100 -1,455 Descending FlightAware ADS-B
Thu 08:14:04 PM 33.3830 -112.1870 344° North 181 208 4,000 -1,174 Descending FlightAware ADS-B
Thu 08:14:46 PM 33.4100 -112.1670 32° Northeast 168 193 3,200 -971 Descending FlightAware ADS-B
Thu 08:15:12 PM 33.4180 -112.1450 66° East 168 193 2,900 -840 Descending FlightAware ADS-B
Thu 08:15:36 PM 33.4240 -112.1260 69° East 149 171 2,500 -808 Descending FlightAware ADS-B
Thu 08:16:04 PM 33.4280 -112.1030 78° East 146 168 2,200 -667 Descending FlightAware ADS-B
Thu 08:16:39 PM 33.4290 -112.0760 87° East 148 170 1,800 -750 Descending FlightAware ADS-B
Thu 08:17:00 PM 33.4290 -112.0570 90° East 149 171 1,500 -857 Descending FlightAware ADS-B
Thu 08:17:21 PM 33.4290 -112.0390 90° East 152 175 1,200 -643 Descending FlightAware ADS-B
Thu 08:17:28 PM 33.4290 -112.0340 90° East 152 175 1,200  Level FlightAware ADS-B
Thu 08:17:55 PM 33.4290 -112.0130 90° East 100 115 -2,667 Descending FlightAware ADS-B
Thu 08:18:23 PM 33.4290 -112.0000 90° East 100 115  Level FlightAware ADS-B

Login

Don't have an account? Register now (free) for customized features, flight alerts, and more!